Time;durP1;ratioP1;P1;durP2;ratioP2;P2;SDS_P1;SDS_P2;PMS_P1;PMS_P2;Temp;Humidity;BMP_temperature;BMP_pressure;BME280_temperature;BME280_humidity;BME280_pressure;Samples;Min_cycle;Max_cycle;Signal;HPM_P1;HPM_P2
2023/10/28 00:00:52;;;;;;;0.00;0.00;;;;;;;14.23;59.96;98375.56;5324884;26;20032;-94
2023/10/28 00:03:17;;;;;;;0.05;0.03;;;;;;;14.03;59.95;98381.31;5322663;26;20077;-95
2023/10/28 00:05:43;;;;;;;0.00;0.00;;;;;;;14.06;59.95;98381.09;5313203;26;20052;-93
2023/10/28 00:08:08;;;;;;;0.00;0.00;;;;;;;14.22;59.96;98381.72;5307921;26;20428;-95
2023/10/28 00:10:35;;;;;;;0.00;0.00;;;;;;;14.12;59.96;98383.28;5307449;26;20108;-94
2023/10/28 00:13:01;;;;;;;0.00;0.00;;;;;;;14.24;59.96;98386.84;5326339;26;20098;-96
2023/10/28 00:15:26;;;;;;;0.22;0.20;;;;;;;14.26;59.96;98391.03;5307593;26;20056;-96
2023/10/28 00:17:52;;;;;;;0.08;0.08;;;;;;;14.26;59.97;98396.28;5326392;26;20070;-95
2023/10/28 00:20:17;;;;;;;0.00;0.00;;;;;;;14.26;59.96;98398.06;5307877;26;20421;-96
2023/10/28 00:22:46;;;;;;;0.00;0.00;;;;;;;14.29;59.97;98408.31;5307968;26;20108;-94
2023/10/28 00:25:16;;;;;;;0.00;0.00;;;;;;;14.39;59.97;98404.94;5307777;26;20061;-94
2023/10/28 00:27:43;;;;;;;0.00;0.00;;;;;;;14.41;59.98;98399.59;5310034;26;20075;-95
2023/10/28 00:30:09;;;;;;;0.00;0.00;;;;;;;14.30;59.96;98395.13;5289198;26;20099;-95
2023/10/28 00:32:37;;;;;;;0.00;0.00;;;;;;;14.22;59.96;98394.81;5307972;26;20109;-95
2023/10/28 00:35:05;;;;;;;0.45;0.28;;;;;;;14.22;59.96;98400.06;5289834;26;20083;-95
2023/10/28 00:37:30;;;;;;;0.00;0.00;;;;;;;14.11;59.96;98403.38;5289288;26;20341;-95
2023/10/28 00:39:56;;;;;;;0.00;0.00;;;;;;;14.13;59.95;98405.88;5308079;26;20107;-95
2023/10/28 00:42:21;;;;;;;0.00;0.00;;;;;;;14.10;59.94;98401.69;5308124;26;20098;-95
2023/10/28 00:44:47;;;;;;;0.00;0.00;;;;;;;14.06;59.95;98400.25;5289377;26;20053;-94
2023/10/28 00:47:12;;;;;;;0.00;0.00;;;;;;;14.12;59.96;98398.97;5311112;26;20094;-94
2023/10/28 00:49:38;;;;;;;0.00;0.00;;;;;;;14.03;59.95;98412.69;5308233;26;20984;-94
2023/10/28 00:52:03;;;;;;;0.00;0.00;;;;;;;13.99;59.95;98416.47;5308512;26;20449;-94
2023/10/28 00:54:29;;;;;;;0.00;0.00;;;;;;;14.10;59.96;98421.81;5308386;26;20056;-95
2023/10/28 00:56:54;;;;;;;0.00;0.00;;;;;;;14.18;59.96;98418.66;5308095;26;20049;-95
2023/10/28 00:59:20;;;;;;;0.00;0.00;;;;;;;14.01;59.94;98428.50;5307078;26;20064;-95
2023/10/28 01:01:45;;;;;;;0.00;0.00;;;;;;;14.17;59.95;98432.69;5307955;26;20064;-95
2023/10/28 01:04:11;;;;;;;0.00;0.00;;;;;;;14.10;59.96;98427.03;5308027;26;20394;-95
2023/10/28 01:06:38;;;;;;;0.00;0.00;;;;;;;13.95;59.94;98441.97;5308580;26;20108;-95
2023/10/28 01:09:03;;;;;;;0.03;0.03;;;;;;;13.88;59.94;98432.03;5290753;26;20099;-95
2023/10/28 01:11:28;;;;;;;0.15;0.15;;;;;;;14.00;59.95;98432.06;5309195;26;20124;-95
2023/10/28 01:13:54;;;;;;;0.00;0.00;;;;;;;14.06;59.95;98425.56;5327731;26;20048;-95
2023/10/28 01:16:20;;;;;;;0.00;0.00;;;;;;;13.88;59.95;98426.78;5310536;26;20071;-95
2023/10/28 01:18:45;;;;;;;0.05;0.03;;;;;;;13.98;59.95;98430.50;5311694;26;20080;-96
2023/10/28 01:21:11;;;;;;;0.00;0.00;;;;;;;14.00;59.94;98439.06;5331937;26;20464;-95
2023/10/28 01:23:37;;;;;;;0.30;0.30;;;;;;;14.06;59.95;98441.28;5293537;26;20056;-95
2023/10/28 01:26:03;;;;;;;0.00;0.00;;;;;;;13.90;59.94;98438.81;5308426;26;20079;-93
2023/10/28 01:28:29;;;;;;;0.00;0.00;;;;;;;13.92;59.94;98438.72;5289599;26;20353;-96
2023/10/28 01:30:56;;;;;;;0.00;0.00;;;;;;;13.98;59.95;98439.19;5308724;26;20128;-96
2023/10/28 01:33:21;;;;;;;0.00;0.00;;;;;;;14.14;59.96;98441.59;5308663;26;20092;-96
2023/10/28 01:35:47;;;;;;;0.00;0.00;;;;;;;13.93;59.94;98441.22;5308810;26;20067;-95
2023/10/28 01:38:13;;;;;;;0.00;0.00;;;;;;;13.99;59.95;98443.47;5308588;26;20079;-95
2023/10/28 01:40:38;;;;;;;0.25;0.25;;;;;;;14.14;59.96;98438.97;5308579;26;20084;-95
2023/10/28 01:43:04;;;;;;;0.00;0.00;;;;;;;14.00;59.95;98446.91;5310446;26;20080;-95
2023/10/28 01:45:30;;;;;;;1.10;0.10;;;;;;;13.94;59.96;98453.37;5308435;26;20060;-96
2023/10/28 01:47:56;;;;;;;0.15;0.15;;;;;;;13.78;59.93;98456.19;5307928;26;20334;-95
2023/10/28 01:50:21;;;;;;;0.20;0.20;;;;;;;13.77;59.94;98451.91;5308010;26;20069;-95
2023/10/28 01:52:47;;;;;;;0.00;0.00;;;;;;;13.46;59.92;98462.63;5308114;26;20734;-96
2023/10/28 01:55:12;;;;;;;0.22;0.10;;;;;;;13.37;59.92;98461.47;5308164;26;20253;-95
2023/10/28 01:57:38;;;;;;;0.00;0.00;;;;;;;13.28;59.91;98464.69;5309245;26;20081;-95
2023/10/28 02:00:12;;;;;;;0.00;0.00;;;;;;;13.14;59.91;98475.94;5309373;26;20032;-95
2023/10/28 02:02:37;;;;;;;0.08;0.08;;;;;;;13.17;59.90;98478.41;5292048;26;20056;-96
2023/10/28 02:05:03;;;;;;;0.00;0.00;;;;;;;13.25;59.91;98495.38;5308327;26;20103;-96
2023/10/28 02:07:28;;;;;;;0.00;0.00;;;;;;;13.17;59.90;98491.47;5308381;26;20159;-96
2023/10/28 02:09:54;;;;;;;0.20;0.10;;;;;;;13.15;59.90;98495.91;5308287;26;20108;-96
2023/10/28 02:12:22;;;;;;;0.00;0.00;;;;;;;13.25;59.90;98492.75;5308420;26;20078;-96
2023/10/28 02:14:48;;;;;;;0.00;0.00;;;;;;;13.18;59.90;98500.13;5309007;26;20409;-96
2023/10/28 02:17:13;;;;;;;0.00;0.00;;;;;;;13.28;59.91;98496.03;5327184;26;20079;-95
2023/10/28 02:19:39;;;;;;;0.45;0.40;;;;;;;13.20;59.91;98501.72;5308810;26;20112;-96
2023/10/28 02:22:04;;;;;;;0.65;0.65;;;;;;;13.22;59.91;98504.22;5311650;26;20061;-96
2023/10/28 02:24:30;;;;;;;0.00;0.00;;;;;;;12.95;59.89;98511.12;5308950;26;20052;-95
2023/10/28 02:26:55;;;;;;;0.00;0.00;;;;;;;13.09;59.90;98504.16;5308244;26;20083;-96
2023/10/28 02:29:21;;;;;;;0.00;0.00;;;;;;;12.83;59.89;98505.75;5309768;26;20068;-95
2023/10/28 02:31:48;;;;;;;0.00;0.00;;;;;;;12.60;59.87;98512.34;5309445;26;20360;-95
2023/10/28 02:34:14;;;;;;;0.00;0.00;;;;;;;12.65;59.87;98512.06;5308369;26;20044;-94
2023/10/28 02:36:39;;;;;;;0.35;0.10;;;;;;;12.69;59.88;98505.72;5308591;26;20126;-95
2023/10/28 02:39:05;;;;;;;0.00;0.00;;;;;;;12.58;59.88;98509.00;5308516;26;20091;-95
2023/10/28 02:41:31;;;;;;;0.00;0.00;;;;;;;12.55;59.87;98503.97;5291007;26;20813;-95
2023/10/28 02:43:57;;;;;;;0.20;0.20;;;;;;;12.58;59.88;98500.34;5308358;26;20075;-95
2023/10/28 02:46:23;;;;;;;0.00;0.00;;;;;;;12.33;59.86;98500.13;5308305;26;20446;-94
2023/10/28 02:48:49;;;;;;;0.00;0.00;;;;;;;12.52;59.87;98498.06;5308848;26;20099;-95
2023/10/28 02:51:14;;;;;;;0.00;0.00;;;;;;;12.84;59.89;98490.91;5308717;26;20110;-95
2023/10/28 02:53:40;;;;;;;0.10;0.10;;;;;;;12.86;59.89;98491.66;5308778;26;20405;-96
2023/10/28 02:56:06;;;;;;;6.40;1.27;;;;;;;12.60;59.88;98493.25;5308768;26;20063;-96
2023/10/28 02:58:31;;;;;;;0.10;0.10;;;;;;;12.56;59.87;98492.59;5308389;26;20118;-94
2023/10/28 03:00:57;;;;;;;0.00;0.00;;;;;;;12.32;59.86;98490.59;5309083;26;20112;-95
2023/10/28 03:03:23;;;;;;;0.62;0.62;;;;;;;12.29;59.86;98489.00;5311302;26;20057;-95
2023/10/28 03:05:49;;;;;;;0.00;0.00;;;;;;;12.53;59.87;98492.75;5289347;26;20056;-95
2023/10/28 03:08:15;;;;;;;0.37;0.37;;;;;;;12.50;59.88;98492.94;5308602;26;20056;-95
2023/10/28 03:10:41;;;;;;;0.00;0.00;;;;;;;12.37;59.87;98493.78;5290146;26;20056;-94
2023/10/28 03:13:07;;;;;;;0.00;0.00;;;;;;;12.44;59.86;98495.91;5326835;26;20048;-95
2023/10/28 03:15:32;;;;;;;0.00;0.00;;;;;;;12.45;59.87;98495.00;5308664;26;20123;-95
2023/10/28 03:17:58;;;;;;;0.00;0.00;;;;;;;12.34;59.86;98492.19;5307635;26;20060;-95
2023/10/28 03:20:23;;;;;;;0.00;0.00;;;;;;;12.46;59.87;98496.66;5308471;26;20064;-94
2023/10/28 03:22:49;;;;;;;0.00;0.00;;;;;;;12.35;59.86;98506.91;5308056;26;20135;-95
2023/10/28 03:25:15;;;;;;;0.00;0.00;;;;;;;12.37;59.87;98502.44;5308644;26;20083;-94
2023/10/28 03:27:40;;;;;;;5.03;0.28;;;;;;;12.44;59.87;98508.97;5308323;26;20083;-93
2023/10/28 03:30:06;;;;;;;0.00;0.00;;;;;;;12.40;59.86;98515.31;5308774;26;20095;-95
2023/10/28 03:32:32;;;;;;;0.00;0.00;;;;;;;12.28;59.85;98516.00;5290985;26;20067;-93
2023/10/28 03:34:57;;;;;;;0.00;0.00;;;;;;;12.51;59.87;98510.28;5309674;26;20422;-93
2023/10/28 03:37:23;;;;;;;0.00;0.00;;;;;;;12.32;59.85;98516.69;5309162;26;20357;-95
2023/10/28 03:39:49;;;;;;;0.00;0.00;;;;;;;12.35;59.86;98512.13;5308393;26;20108;-93
2023/10/28 03:42:14;;;;;;;0.00;0.00;;;;;;;12.52;59.87;98511.12;5308245;26;20146;-94
2023/10/28 03:44:40;;;;;;;0.00;0.00;;;;;;;12.42;59.86;98520.44;5308335;26;20074;-95
2023/10/28 03:47:07;;;;;;;0.00;0.00;;;;;;;12.18;59.85;98518.34;5308290;26;20063;-95
2023/10/28 03:49:33;;;;;;;0.00;0.00;;;;;;;12.19;59.84;98522.63;5308988;26;20366;-95
2023/10/28 03:51:59;;;;;;;0.00;0.00;;;;;;;12.06;59.85;98518.19;5307899;26;20048;-95
2023/10/28 03:54:24;;;;;;;0.17;0.10;;;;;;;12.04;59.84;98535.69;5344908;26;20069;-95
2023/10/28 03:56:49;;;;;;;0.00;0.00;;;;;;;11.93;59.84;98531.09;5309481;26;20122;-96
2023/10/28 03:59:15;;;;;;;0.00;0.00;;;;;;;11.77;59.83;98528.47;5308605;26;20056;-96
2023/10/28 04:01:41;;;;;;;0.00;0.00;;;;;;;11.74;59.82;98527.81;5307826;26;20076;-95
2023/10/28 04:04:07;;;;;;;0.40;0.10;;;;;;;11.76;59.83;98533.78;5308223;26;20098;-94
2023/10/28 04:06:32;;;;;;;0.00;0.00;;;;;;;11.96;59.83;98543.97;5290351;26;20102;-95
2023/10/28 04:08:58;;;;;;;0.20;0.20;;;;;;;11.93;59.84;98534.56;5308263;26;20060;-95
2023/10/28 04:11:24;;;;;;;0.00;0.00;;;;;;;11.79;59.83;98531.03;5308250;26;20052;-94
2023/10/28 04:13:49;;;;;;;0.30;0.30;;;;;;;11.77;59.83;98538.06;5308105;26;20095;-94
2023/10/28 04:16:15;;;;;;;0.00;0.00;;;;;;;11.72;59.83;98537.50;5308322;26;20126;-96
2023/10/28 04:18:40;;;;;;;3.50;0.95;;;;;;;11.59;59.82;98537.31;5309717;26;20052;-95
2023/10/28 04:21:06;;;;;;;0.08;0.08;;;;;;;11.71;59.83;98535.81;5326755;26;20053;-95
2023/10/28 04:23:31;;;;;;;0.00;0.00;;;;;;;11.51;59.81;98536.91;5308828;26;20338;-95
2023/10/28 04:25:57;;;;;;;0.00;0.00;;;;;;;11.68;59.83;98545.50;5308610;26;20087;-95
2023/10/28 04:28:23;;;;;;;0.00;0.00;;;;;;;11.43;59.80;98546.94;5308789;26;20074;-95
2023/10/28 04:30:58;;;;;;;0.00;0.00;;;;;;;11.40;59.81;98540.13;5309122;26;20057;-94
2023/10/28 04:33:24;;;;;;;0.00;0.00;;;;;;;11.39;59.81;98554.06;5309197;26;20124;-94
2023/10/28 04:35:52;;;;;;;0.00;0.00;;;;;;;11.46;59.81;98554.56;5309270;26;20055;-93
2023/10/28 04:38:20;;;;;;;0.13;0.13;;;;;;;11.46;59.81;98554.56;5292428;26;20070;-94
2023/10/28 04:40:46;;;;;;;0.10;0.10;;;;;;;11.47;59.81;98554.47;5309504;26;20094;-95
2023/10/28 04:43:12;;;;;;;0.00;0.00;;;;;;;11.50;59.81;98561.28;5308753;26;20090;-92
2023/10/28 04:45:43;;;;;;;1.55;1.45;;;;;;;11.42;59.81;98553.06;5327634;26;20077;-93
2023/10/28 04:48:13;;;;;;;0.00;0.00;;;;;;;11.24;59.80;98550.53;5309607;26;20048;-94
2023/10/28 04:50:38;;;;;;;;;;;;;;;11.29;59.79;98552.87;5309580;26;20053;-94
2023/10/28 04:53:04;;;;;;;0.00;0.00;;;;;;;11.21;59.79;98549.84;5308847;26;20284;-94
2023/10/28 04:55:30;;;;;;;0.00;0.00;;;;;;;11.22;59.79;98551.53;5308755;26;20057;-91
2023/10/28 04:57:55;;;;;;;0.32;0.30;;;;;;;11.19;59.79;98555.13;5309358;26;20067;-94
2023/10/28 05:00:20;;;;;;;0.00;0.00;;;;;;;11.18;59.80;98561.28;5310208;26;25071;-93
2023/10/28 05:02:46;;;;;;;0.00;0.00;;;;;;;11.04;59.78;98559.38;5311545;26;20142;-94
2023/10/28 05:05:13;;;;;;;0.00;0.00;;;;;;;10.85;59.78;98556.06;5322343;26;20029;-92
2023/10/28 05:07:39;;;;;;;0.00;0.00;;;;;;;10.99;59.79;98558.78;5325363;26;20078;-92
2023/10/28 05:10:05;;;;;;;0.00;0.00;;;;;;;10.89;59.78;98560.22;5312845;26;20045;-94
2023/10/28 05:12:32;;;;;;;0.13;0.13;;;;;;;11.03;59.79;98567.28;5291100;26;20053;-93
2023/10/28 05:14:58;;;;;;;0.40;0.40;;;;;;;10.97;59.78;98572.81;5308472;26;20083;-94
2023/10/28 05:17:25;;;;;;;0.22;0.22;;;;;;;10.94;59.78;98567.78;5308592;26;20071;-92
2023/10/28 05:19:51;;;;;;;0.00;0.00;;;;;;;10.90;59.78;98585.31;5308625;26;20049;-93
2023/10/28 05:22:18;;;;;;;0.30;0.30;;;;;;;10.94;59.78;98583.41;5308247;26;20079;-93
2023/10/28 05:24:44;;;;;;;0.00;0.00;;;;;;;10.77;59.78;98577.28;5308411;26;20421;-94
2023/10/28 05:27:10;;;;;;;0.10;0.10;;;;;;;10.73;59.77;98583.59;5308203;26;20074;-93
2023/10/28 05:29:36;;;;;;;0.00;0.00;;;;;;;10.81;59.78;98579.72;5327045;26;20041;-92
2023/10/28 05:32:01;;;;;;;0.17;0.17;;;;;;;10.61;59.76;98588.56;5308363;26;20075;-92
2023/10/28 05:34:26;;;;;;;0.20;0.10;;;;;;;10.69;59.78;98597.69;5312686;26;20097;-93
2023/10/28 05:36:52;;;;;;;0.00;0.00;;;;;;;10.86;59.78;98603.75;5307560;26;20114;-94
2023/10/28 05:39:17;;;;;;;0.00;0.00;;;;;;;10.96;59.79;98628.41;5308145;26;20112;-93
2023/10/28 05:41:43;;;;;;;0.30;0.30;;;;;;;10.74;59.77;98629.50;5307809;26;20079;-94
2023/10/28 05:44:08;;;;;;;0.00;0.00;;;;;;;10.62;59.76;98634.47;5326384;26;20102;-94
2023/10/28 05:46:34;;;;;;;0.00;0.00;;;;;;;10.95;59.79;98637.16;5307780;26;22757;-93
2023/10/28 05:49:00;;;;;;;0.00;0.00;;;;;;;10.83;59.77;98640.38;5308219;26;20052;-94
2023/10/28 05:51:25;;;;;;;0.00;0.00;;;;;;;10.85;59.77;98648.94;5308346;26;20081;-93
2023/10/28 05:53:51;;;;;;;0.00;0.00;;;;;;;10.90;59.78;98658.22;5309099;26;20115;-94
2023/10/28 05:56:17;;;;;;;0.00;0.00;;;;;;;11.03;59.79;98661.03;5308027;26;20052;-95
2023/10/28 05:58:43;;;;;;;0.00;0.00;;;;;;;11.11;59.79;98664.06;5308191;26;20025;-94
2023/10/28 06:01:08;;;;;;;0.30;0.30;;;;;;;11.23;59.80;98665.22;5307918;26;20082;-93
2023/10/28 06:03:34;;;;;;;0.15;0.15;;;;;;;11.65;59.82;98662.97;5307815;26;20438;-93
2023/10/28 06:05:59;;;;;;;0.57;0.57;;;;;;;11.63;59.82;98662.19;5307819;26;20060;-94
2023/10/28 06:08:25;;;;;;;0.10;0.10;;;;;;;11.63;59.82;98671.78;5308120;26;20406;-92
2023/10/28 06:10:50;;;;;;;0.15;0.15;;;;;;;11.70;59.83;98670.53;5308326;26;20080;-94
2023/10/28 06:13:16;;;;;;;0.00;0.00;;;;;;;11.91;59.84;98674.63;5326997;26;20429;-93
2023/10/28 06:15:41;;;;;;;0.70;0.52;;;;;;;12.15;59.85;98669.81;5313434;26;20052;-94
2023/10/28 06:18:07;;;;;;;0.10;0.10;;;;;;;12.35;59.85;98673.09;5319541;26;20063;-94
2023/10/28 06:20:33;;;;;;;0.17;0.17;;;;;;;12.39;59.86;98680.66;5290320;26;20065;-94
2023/10/28 06:22:59;;;;;;;0.00;0.00;;;;;;;12.63;59.87;98675.81;5307900;26;20073;-93
2023/10/28 06:25:24;;;;;;;0.00;0.00;;;;;;;12.82;59.89;98679.03;5307462;26;20056;-94
2023/10/28 06:27:50;;;;;;;0.08;0.08;;;;;;;12.70;59.87;98676.28;5308057;26;20381;-93
2023/10/28 06:30:15;;;;;;;0.05;0.03;;;;;;;12.66;59.88;98685.22;5307595;26;20080;-93
2023/10/28 06:32:41;;;;;;;0.95;0.62;;;;;;;12.74;59.88;98683.84;5308031;26;20475;-94
2023/10/28 06:35:08;;;;;;;0.82;0.80;;;;;;;12.58;59.88;98681.28;5309479;26;20048;-94
2023/10/28 06:37:33;;;;;;;0.55;0.55;;;;;;;12.60;59.87;98684.66;5308869;26;23212;-94
2023/10/28 06:39:58;;;;;;;0.10;0.10;;;;;;;12.85;59.88;98685.84;5309948;26;20156;-94
2023/10/28 06:42:24;;;;;;;0.30;0.30;;;;;;;12.99;59.89;98690.25;5318575;26;20056;-92
2023/10/28 06:44:49;;;;;;;0.20;0.20;;;;;;;13.09;59.89;98694.03;5323392;26;20065;-92
2023/10/28 06:47:16;;;;;;;0.22;0.22;;;;;;;13.26;59.90;98696.50;5315469;26;20052;-93
2023/10/28 06:49:41;;;;;;;0.57;0.20;;;;;;;13.25;59.90;98702.69;5327554;26;20024;-93
2023/10/28 06:52:07;;;;;;;0.00;0.00;;;;;;;13.51;59.92;98701.94;5308150;26;20105;-93
2023/10/28 06:54:32;;;;;;;0.13;0.13;;;;;;;13.56;59.92;98699.06;5308127;26;20337;-93
2023/10/28 06:56:58;;;;;;;0.10;0.10;;;;;;;13.71;59.93;98702.47;5308213;26;20068;-94
2023/10/28 06:59:24;;;;;;;0.00;0.00;;;;;;;13.72;59.92;98712.87;5307913;26;22883;-93
2023/10/28 07:01:49;;;;;;;0.08;0.05;;;;;;;13.83;59.94;98714.81;5307687;26;20130;-93
2023/10/28 07:04:15;;;;;;;0.00;0.00;;;;;;;13.80;59.94;98708.00;5308043;26;20430;-93
2023/10/28 07:06:45;;;;;;;0.52;0.40;;;;;;;13.76;59.93;98722.22;5308025;26;20491;-93
2023/10/28 07:09:10;;;;;;;;;;;;;;;13.84;59.94;98719.13;5331837;26;20068;-92
2023/10/28 07:11:36;;;;;;;0.25;0.20;;;;;;;13.78;59.93;98724.72;5308037;26;19982;-93
2023/10/28 07:14:02;;;;;;;0.40;0.40;;;;;;;13.82;59.94;98724.44;5307875;26;20088;-93
2023/10/28 07:16:28;;;;;;;0.10;0.10;;;;;;;13.76;59.93;98734.44;5308436;26;20456;-93
2023/10/28 07:18:53;;;;;;;0.70;0.62;;;;;;;13.95;59.94;98737.59;5307923;26;20075;-93
2023/10/28 07:21:20;;;;;;;0.00;0.00;;;;;;;13.87;59.93;98747.69;5307441;26;20457;-93
2023/10/28 07:23:45;;;;;;;0.10;0.10;;;;;;;13.85;59.94;98749.56;5308078;26;20779;-94
2023/10/28 07:26:12;;;;;;;0.28;0.20;;;;;;;13.71;59.93;98771.31;5307764;26;20111;-94
2023/10/28 07:28:38;;;;;;;0.05;0.05;;;;;;;13.69;59.93;98775.81;5308276;26;20063;-94
2023/10/28 07:31:04;;;;;;;1.60;1.15;;;;;;;13.76;59.94;98790.22;5308514;26;20079;-92
2023/10/28 07:33:30;;;;;;;0.43;0.43;;;;;;;14.11;59.96;98784.59;5307923;26;20071;-92
2023/10/28 07:35:55;;;;;;;0.00;0.00;;;;;;;14.28;59.97;98789.63;5308073;26;20111;-93
2023/10/28 07:38:21;;;;;;;0.10;0.10;;;;;;;14.21;59.96;98777.88;5307659;26;20116;-92
2023/10/28 07:40:47;;;;;;;0.00;0.00;;;;;;;14.53;59.97;98775.03;5308051;26;20077;-92
2023/10/28 07:43:13;;;;;;;0.03;0.03;;;;;;;14.67;59.98;98773.22;5289544;26;20071;-94
2023/10/28 07:45:42;;;;;;;0.40;0.40;;;;;;;14.58;59.98;98768.56;5309183;26;20052;-93
2023/10/28 07:48:07;;;;;;;0.00;0.00;;;;;;;14.81;59.99;98755.75;5292486;26;20039;-92
2023/10/28 07:50:42;;;;;;;0.20;0.20;;;;;;;14.98;60.00;98758.97;5308657;26;20391;-93
2023/10/28 07:53:08;;;;;;;0.00;0.00;;;;;;;15.18;60.01;98757.66;5289598;26;20075;-92
2023/10/28 07:55:34;;;;;;;0.30;0.30;;;;;;;15.05;60.00;98757.59;5307742;26;20048;-93
2023/10/28 07:57:59;;;;;;;1.02;1.00;;;;;;;15.25;60.02;98760.69;5308017;26;20119;-93
2023/10/28 08:00:26;;;;;;;0.00;0.00;;;;;;;15.39;60.02;98763.25;5289713;26;20068;-92
2023/10/28 08:02:52;;;;;;;0.70;0.37;;;;;;;15.45;60.02;98760.19;5307715;26;20060;-93
2023/10/28 08:05:18;;;;;;;0.00;0.00;;;;;;;15.54;60.02;98772.69;5308652;26;20072;-92
2023/10/28 08:07:43;;;;;;;0.13;0.13;;;;;;;15.80;60.04;98776.19;5308920;26;20073;-93
2023/10/28 08:10:09;;;;;;;0.32;0.20;;;;;;;15.76;60.04;98774.72;5308706;26;20123;-92
2023/10/28 08:12:35;;;;;;;0.43;0.43;;;;;;;15.90;60.05;98779.03;5308546;26;20850;-93
2023/10/28 08:15:02;;;;;;;0.00;0.00;;;;;;;16.14;60.06;98776.47;5307968;26;20048;-94
2023/10/28 08:17:30;;;;;;;0.10;0.10;;;;;;;16.52;60.08;98769.31;5289450;26;20444;-95
2023/10/28 08:19:56;;;;;;;0.47;0.35;;;;;;;16.69;60.08;98772.56;5290295;26;20064;-94
2023/10/28 08:22:21;;;;;;;0.10;0.10;;;;;;;16.49;60.08;98787.94;5307446;26;20105;-94
2023/10/28 08:24:47;;;;;;;0.37;0.37;;;;;;;16.53;60.08;98788.53;5307667;26;20413;-93
2023/10/28 08:27:12;;;;;;;0.00;0.00;;;;;;;16.57;60.08;98790.03;5307559;26;20100;-94
2023/10/28 08:29:39;;;;;;;0.00;0.00;;;;;;;16.71;60.09;98797.78;5325665;26;23369;-93
2023/10/28 08:32:05;;;;;;;0.00;0.00;;;;;;;16.86;60.10;98794.03;5308067;26;20076;-93
2023/10/28 08:34:31;;;;;;;0.73;0.73;;;;;;;17.01;60.11;98799.13;5290262;26;20048;-94
2023/10/28 08:36:56;;;;;;;0.10;0.10;;;;;;;17.08;60.10;98798.56;5308784;26;20076;-93
2023/10/28 08:39:23;;;;;;;0.20;0.20;;;;;;;17.08;60.10;98805.63;5308782;26;21730;-93
2023/10/28 08:41:49;;;;;;;0.20;0.20;;;;;;;17.22;60.11;98815.94;5310526;26;20226;-93
2023/10/28 08:44:15;;;;;;;0.10;0.10;;;;;;;17.43;60.13;98808.25;5310963;26;20428;-93
2023/10/28 08:46:40;;;;;;;0.00;0.00;;;;;;;17.41;60.13;98818.06;5307250;26;20105;-93
2023/10/28 08:49:06;;;;;;;0.70;0.70;;;;;;;17.55;60.13;98819.66;5307360;26;20115;-92
2023/10/28 08:51:32;;;;;;;0.52;0.52;;;;;;;17.75;60.14;98821.66;5307373;26;20082;-93
2023/10/28 08:53:59;;;;;;;0.20;0.20;;;;;;;17.75;60.14;98827.75;5307808;26;20078;-94
2023/10/28 08:56:25;;;;;;;0.37;0.37;;;;;;;17.93;60.16;98829.91;5289333;26;20064;-94
2023/10/28 08:58:52;;;;;;;0.20;0.20;;;;;;;17.98;60.15;98823.38;5289174;26;20683;-93
2023/10/28 09:01:22;;;;;;;0.95;0.85;;;;;;;18.08;60.15;98826.13;5289355;26;20060;-94
2023/10/28 09:03:47;;;;;;;;;;;;;;;18.01;60.16;98830.19;5290778;26;20133;-94
2023/10/28 09:06:13;;;;;;;0.00;0.00;;;;;;;18.06;60.16;98831.50;5308551;26;20324;-94
2023/10/28 09:08:38;;;;;;;0.52;0.35;;;;;;;18.13;60.17;98841.56;5308390;26;20175;-95
2023/10/28 09:11:04;;;;;;;0.00;0.00;;;;;;;18.36;60.18;98838.81;5326488;26;20067;-94
2023/10/28 09:13:30;;;;;;;1.58;0.55;;;;;;;18.43;60.18;98841.78;5308727;26;20151;-95
2023/10/28 09:15:56;;;;;;;0.00;0.00;;;;;;;18.49;60.18;98849.25;5308525;26;20060;-96
2023/10/28 09:18:23;;;;;;;0.00;0.00;;;;;;;18.60;60.19;98843.94;5322686;26;20534;-94
2023/10/28 09:20:48;;;;;;;1.95;1.48;;;;;;;18.67;60.19;98852.22;5312711;26;20021;-95
2023/10/28 09:23:14;;;;;;;0.28;0.17;;;;;;;18.49;60.18;98849.25;5308316;26;20091;-94
2023/10/28 09:25:40;;;;;;;0.80;0.65;;;;;;;18.71;60.20;98853.69;5309539;26;20122;-94
2023/10/28 09:28:13;;;;;;;6.47;3.40;;;;;;;18.67;60.19;98849.59;5308224;26;20056;-95
2023/10/28 09:30:46;;;;;;;0.00;0.00;;;;;;;18.90;60.21;98851.22;5291170;26;20054;-94
2023/10/28 09:33:12;;;;;;;0.00;0.00;;;;;;;18.84;60.19;98849.09;5290887;26;20048;-95
2023/10/28 09:35:39;;;;;;;0.00;0.00;;;;;;;18.74;60.20;98856.06;5308343;26;20095;-94
2023/10/28 09:38:05;;;;;;;0.00;0.00;;;;;;;18.70;60.20;98858.13;5308303;26;20129;-95
2023/10/28 09:40:31;;;;;;;1.35;0.37;;;;;;;18.72;60.19;98857.16;5308407;26;20128;-94
2023/10/28 09:42:56;;;;;;;0.00;0.00;;;;;;;18.82;60.20;98858.09;5308352;26;20099;-95
2023/10/28 09:45:22;;;;;;;0.22;0.22;;;;;;;18.78;60.21;98854.03;5307623;26;27399;-95
2023/10/28 09:47:57;;;;;;;0.13;0.13;;;;;;;19.01;60.22;98845.94;5309614;26;20107;-94
2023/10/28 09:50:23;;;;;;;0.60;0.57;;;;;;;19.30;60.22;98850.63;5308256;26;20753;-95
2023/10/28 09:52:51;;;;;;;0.00;0.00;;;;;;;19.32;60.23;98849.53;5308328;26;20066;-95
2023/10/28 09:55:17;;;;;;;0.10;0.10;;;;;;;19.45;60.23;98851.19;5290509;26;20051;-94
2023/10/28 09:57:44;;;;;;;0.80;0.37;;;;;;;19.57;60.24;98844.91;5308376;26;20121;-94
2023/10/28 10:00:17;;;;;;;0.00;0.00;;;;;;;19.76;60.24;98839.75;5289900;26;20081;-95
2023/10/28 10:02:59;;;;;;;0.17;0.17;;;;;;;19.62;60.25;98840.91;5291334;26;20104;-95
2023/10/28 10:05:44;;;;;;;0.25;0.25;;;;;;;19.68;60.24;98844.03;5308748;26;20064;-95
2023/10/28 10:08:19;;;;;;;0.00;0.00;;;;;;;19.72;60.25;98838.34;5292749;26;20816;-95
2023/10/28 10:10:47;;;;;;;0.00;0.00;;;;;;;19.62;60.23;98840.06;5290297;26;20097;-95
2023/10/28 10:13:15;;;;;;;0.00;0.00;;;;;;;19.43;60.23;98850.47;5308770;26;20044;-95
2023/10/28 10:15:44;;;;;;;1.08;0.55;;;;;;;19.63;60.24;98839.94;5308925;26;20114;-95
2023/10/28 10:18:12;;;;;;;0.20;0.20;;;;;;;19.64;60.25;98835.53;5290871;26;20633;-95
2023/10/28 10:20:43;;;;;;;0.57;0.57;;;;;;;19.71;60.25;98844.59;5291731;26;20031;-95
2023/10/28 10:23:09;;;;;;;2.30;0.35;;;;;;;19.73;60.25;98834.75;5311179;26;20386;-96
2023/10/28 10:25:43;;;;;;;0.00;0.00;;;;;;;19.79;60.26;98839.50;5308385;26;20064;-94
2023/10/28 10:28:19;;;;;;;0.82;0.82;;;;;;;19.68;60.24;98836.09;5290916;26;20083;-95
2023/10/28 10:30:44;;;;;;;1.10;1.02;;;;;;;19.68;60.24;98826.38;5308491;26;20413;-96
2023/10/28 10:33:10;;;;;;;0.15;0.10;;;;;;;19.63;60.25;98828.53;5308267;26;20044;-95
2023/10/28 10:35:38;;;;;;;0.00;0.00;;;;;;;19.62;60.25;98833.00;5308096;26;20413;-96
2023/10/28 10:38:04;;;;;;;0.00;0.00;;;;;;;19.53;60.24;98838.19;5326585;26;20025;-96
2023/10/28 10:40:32;;;;;;;0.20;0.20;;;;;;;19.66;60.25;98840.69;5308530;26;20052;-94
2023/10/28 10:43:12;;;;;;;0.00;0.00;;;;;;;19.59;60.24;98841.16;5292531;26;20091;-95
2023/10/28 10:45:37;;;;;;;0.00;0.00;;;;;;;19.52;60.24;98847.91;5309643;26;20048;-96
2023/10/28 10:48:04;;;;;;;0.00;0.00;;;;;;;19.74;60.25;98852.25;5314100;26;20052;-95
2023/10/28 10:50:31;;;;;;;0.00;0.00;;;;;;;19.67;60.25;98853.75;5321329;26;20059;-95
2023/10/28 10:52:57;;;;;;;0.00;0.00;;;;;;;19.88;60.26;98843.19;5310357;26;20048;-96
2023/10/28 10:55:29;;;;;;;0.00;0.00;;;;;;;19.97;60.26;98838.91;5308686;26;20064;-95
2023/10/28 10:57:55;;;;;;;0.00;0.00;;;;;;;20.29;60.28;98831.69;5327561;26;20060;-95
2023/10/28 11:00:20;;;;;;;0.00;0.00;;;;;;;20.42;60.29;98837.63;5308018;26;20056;-94
2023/10/28 11:02:47;;;;;;;0.10;0.10;;;;;;;20.40;60.29;98839.59;5310842;26;20066;-96
2023/10/28 11:05:13;;;;;;;0.20;0.10;;;;;;;20.51;60.29;98842.13;5289880;26;20075;-95
2023/10/28 11:07:41;;;;;;;0.00;0.00;;;;;;;20.31;60.28;98842.13;5307944;26;20064;-95
2023/10/28 11:10:09;;;;;;;0.00;0.00;;;;;;;20.41;60.29;98841.25;5308319;26;20112;-95
2023/10/28 11:12:38;;;;;;;0.00;0.00;;;;;;;20.63;60.31;98839.38;5290757;26;20040;-95
2023/10/28 11:15:04;;;;;;;0.22;0.22;;;;;;;20.80;60.31;98831.62;5308691;26;20102;-95
2023/10/28 11:17:30;;;;;;;0.00;0.00;;;;;;;20.96;60.31;98820.50;5290002;26;20064;-94
2023/10/28 11:19:57;;;;;;;0.00;0.00;;;;;;;20.92;60.31;98816.47;5318367;26;217579;-95
2023/10/28 11:22:23;;;;;;;0.43;0.40;;;;;;;21.00;60.31;98818.41;5326383;26;20073;-96
2023/10/28 11:24:58;;;;;;;0.00;0.00;;;;;;;20.97;60.32;98813.41;5319153;26;20025;-95
2023/10/28 11:27:24;;;;;;;0.00;0.00;;;;;;;21.02;60.31;98816.47;5294765;26;20064;-96
2023/10/28 11:29:50;;;;;;;0.30;0.28;;;;;;;21.08;60.32;98814.13;5309162;26;20060;-95